Terminal Aerodrome Forecast
Issued by NWS Wilmington, NC

Home | Current Version | Previous Version | Text Only | Print | Product List | Glossary On
Versions: 1 2 3 4 5 6 7 8 9 10 11 12 13 14 15 16
163
FTUS42 KILM 231011 AAC
TAFILM
TAF AMD
KILM 231011Z 2310/2406 03005KT 5SM -SHRA BKN006
     FM231200 05006KT P6SM VCSH OVC020
      TEMPO 2312/2315 P6SM OVC008
     FM231500 07009KT 3SM -SHRA OVC015
     FM232000 09011KT P6SM BKN015 PROB30 2320/2324 3SM -SHRA OVC010
     FM240000 09009KT 3SM SHRA BKN015=

USA.gov is the U.S. government's official web portal to all federal, state and local government web resources and services.